Time;durP1;ratioP1;P1;durP2;ratioP2;P2;SDS_P1;SDS_P2;PMS_P1;PMS_P2;Temp;Humidity;BMP_temperature;BMP_pressure;BME280_temperature;BME280_humidity;BME280_pressure;Samples;Min_cycle;Max_cycle;Signal;HPM_P1;HPM_P2
2022/06/28 00:00:45;;;;;;;0.40;0.40;;;15.20;99.90;16.30;101924.00;;;;5098504;28;20185;-67
2022/06/28 00:03:18;;;;;;;0.40;0.40;;;15.40;99.90;16.30;101922.00;;;;5098144;28;20225;-67
2022/06/28 00:05:46;;;;;;;0.40;0.40;;;15.70;99.90;16.50;101910.00;;;;5098449;28;20182;-67
2022/06/28 00:08:30;;;;;;;0.40;0.40;;;15.70;99.90;16.10;101908.00;;;;5097899;28;20650;-66
2022/06/28 00:10:56;;;;;;;0.40;0.40;;;15.70;99.90;15.80;101886.00;;;;5081145;28;20176;-66
2022/06/28 00:13:21;;;;;;;0.40;0.40;;;15.60;99.90;15.50;101911.00;;;;5098283;28;20191;-66
2022/06/28 00:16:10;;;;;;;0.30;0.30;;;15.30;99.90;15.20;101914.00;;;;5080863;28;20275;-66
2022/06/28 00:18:39;;;;;;;0.40;0.40;;;15.20;99.90;15.90;101915.00;;;;5115892;28;20278;-66
2022/06/28 00:21:14;;;;;;;0.40;0.40;;;15.30;99.90;16.10;101884.00;;;;5097894;28;20285;-67
2022/06/28 00:23:42;;;;;;;0.40;0.40;;;15.40;99.90;16.40;101884.00;;;;5097837;28;20240;-66
2022/06/28 00:26:28;;;;;;;0.40;0.40;;;15.60;99.90;16.70;101907.00;;;;5097946;28;20644;-66
2022/06/28 00:28:56;;;;;;;0.40;0.40;;;15.80;99.90;16.10;101905.00;;;;5115725;28;20187;-67
2022/06/28 00:31:25;;;;;;;0.50;0.50;;;15.70;99.90;15.90;101903.00;;;;5097396;28;20216;-67
2022/06/28 00:33:53;;;;;;;0.40;0.40;;;15.50;99.90;16.00;101877.00;;;;5097717;28;20214;-67
2022/06/28 00:36:19;;;;;;;0.40;0.40;;;15.50;99.90;15.90;101907.00;;;;5097700;28;20183;-67
2022/06/28 00:38:53;;;;;;;0.40;0.40;;;15.50;99.90;15.60;101910.00;;;;5080647;28;20532;-67
2022/06/28 00:41:29;;;;;;;0.40;0.40;;;15.50;99.90;15.60;101910.00;;;;5097097;28;20652;-67
2022/06/28 00:44:03;;;;;;;0.40;0.40;;;15.40;99.90;15.70;101910.00;;;;5097526;28;20179;-67
2022/06/28 00:46:35;;;;;;;0.40;0.40;;;15.30;99.90;16.10;101921.00;;;;5080156;28;20184;-67
2022/06/28 00:49:04;;;;;;;0.40;0.40;;;15.50;99.90;16.10;101908.00;;;;5098119;28;20192;-67
2022/06/28 00:51:32;;;;;;;0.40;0.40;;;15.60;99.90;16.10;101914.00;;;;5097114;28;20193;-67
2022/06/28 00:53:59;;;;;;;0.40;0.40;;;15.60;99.90;16.20;101914.00;;;;5114868;28;20518;-67
2022/06/28 00:56:25;;;;;;;0.40;0.40;;;15.70;99.90;16.50;101921.00;;;;5096696;28;20175;-67
2022/06/28 00:58:55;;;;;;;0.40;0.40;;;15.80;99.90;16.30;101915.00;;;;5103799;27;20241;-67
2022/06/28 01:01:30;;;;;;;0.40;0.40;;;15.80;99.90;16.60;101891.00;;;;5117426;27;20215;-67
2022/06/28 01:03:56;;;;;;;0.40;0.40;;;15.90;99.90;16.30;101928.00;;;;5117668;27;20622;-66
2022/06/28 01:06:39;;;;;;;0.30;0.30;;;15.80;99.90;16.30;101911.00;;;;5117427;27;20168;-66
2022/06/28 01:09:10;;;;;;;0.40;0.40;;;15.80;99.90;16.00;101887.00;;;;5117073;27;20258;-66
2022/06/28 01:11:43;;;;;;;0.40;0.40;;;15.60;99.90;16.20;101917.00;;;;5100076;27;20197;-66
2022/06/28 01:14:15;;;;;;;0.40;0.40;;;15.50;99.90;15.90;101924.00;;;;5100354;27;20624;-68
2022/06/28 01:16:43;;;;;;;0.33;0.33;;;15.50;99.90;15.80;101910.00;;;;5117526;27;20171;-67
2022/06/28 01:19:14;;;;;;;0.40;0.40;;;15.40;99.90;16.00;101931.00;;;;5117444;27;20635;-67
2022/06/28 01:21:41;;;;;;;0.40;0.40;;;15.40;99.90;16.20;101891.00;;;;5117113;27;20188;-67
2022/06/28 01:24:08;;;;;;;0.40;0.40;;;15.50;99.90;15.90;101906.00;;;;5117030;27;20176;-67
2022/06/28 01:26:34;;;;;;;0.40;0.40;;;15.50;99.90;16.00;101918.00;;;;5116844;27;20252;-66
2022/06/28 01:29:01;;;;;;;0.40;0.40;;;15.50;99.90;15.90;101919.00;;;;5110755;28;20188;-66
2022/06/28 01:31:29;;;;;;;0.30;0.30;;;15.40;99.90;15.40;101921.00;;;;5096043;28;20303;-66
2022/06/28 01:33:57;;;;;;;0.50;0.50;;;15.30;99.90;15.50;101922.00;;;;5096741;28;20177;-66
2022/06/28 01:36:27;;;;;;;0.40;0.40;;;15.20;99.90;15.50;101926.00;;;;5096699;28;20661;-66
2022/06/28 01:39:13;;;;;;;0.40;0.40;;;15.20;99.90;16.00;101918.00;;;;5096197;28;20558;-66
2022/06/28 01:41:40;;;;;;;0.40;0.40;;;15.30;99.90;15.60;101921.00;;;;5115168;28;20173;-66
2022/06/28 01:44:09;;;;;;;0.40;0.40;;;15.20;99.90;15.30;101920.00;;;;5114476;28;20193;-66
2022/06/28 01:46:38;;;;;;;0.40;0.40;;;15.20;99.90;14.90;101918.00;;;;5095715;28;20265;-66
2022/06/28 01:49:24;;;;;;;0.40;0.40;;;15.00;99.90;14.90;101928.00;;;;5096499;28;20207;-67
2022/06/28 01:51:57;;;;;;;0.40;0.40;;;14.80;99.90;15.30;101917.00;;;;5114011;28;20654;-67
2022/06/28 01:54:31;;;;;;;0.40;0.40;;;14.80;99.90;14.90;101934.00;;;;5096334;28;20195;-67
2022/06/28 01:57:04;;;;;;;0.40;0.40;;;14.80;99.90;15.00;101931.00;;;;5095989;28;20202;-67
2022/06/28 01:59:39;;;;;;;0.40;0.40;;;14.70;99.90;14.70;101928.00;;;;5093301;28;20182;-67
2022/06/28 02:02:12;;;;;;;0.40;0.40;;;14.70;99.90;14.70;101932.00;;;;5116308;27;20193;-67
2022/06/28 02:04:43;;;;;;;0.40;0.40;;;14.60;99.90;15.50;101927.00;;;;5116260;27;20241;-66
2022/06/28 02:07:11;;;;;;;0.50;0.50;;;14.80;99.90;15.70;101897.00;;;;5133153;27;20179;-66
2022/06/28 02:09:39;;;;;;;0.50;0.50;;;15.00;99.90;15.50;101922.00;;;;5133978;27;20281;-66
2022/06/28 02:14:56;;;;;;;0.50;0.50;;;15.00;99.90;15.00;101919.00;;;;5119302;27;20281;-66
2022/06/28 02:17:24;;;;;;;0.40;0.40;;;14.80;99.90;15.40;101923.00;;;;5115758;27;20649;-66
2022/06/28 02:19:50;;;;;;;0.40;0.40;;;14.80;99.90;15.10;101821.00;;;;5134580;27;20203;-66
2022/06/28 02:22:24;;;;;;;0.50;0.50;;;14.70;99.90;15.40;101933.00;;;;5115952;27;20214;-66
2022/06/28 02:24:58;;;;;;;0.40;0.40;;;14.70;99.90;14.80;101917.00;;;;5134556;27;20168;-66
2022/06/28 02:27:33;;;;;;;0.40;0.40;;;14.60;99.90;15.40;101926.00;;;;5134257;27;20205;-66
2022/06/28 02:30:09;;;;;;;0.50;0.50;;;14.70;99.90;15.60;101929.00;;;;5116319;28;20184;-66
2022/06/28 02:32:38;;;;;;;0.40;0.40;;;14.80;99.90;15.20;101919.00;;;;5115557;28;20672;-66
2022/06/28 02:40:45;;;;;;;0.40;0.40;;;14.80;99.90;15.20;101937.00;;;;5134238;28;20209;-66
2022/06/28 02:43:11;;;;;;;0.50;0.50;;;14.80;99.90;15.20;101934.00;;;;5116051;28;20189;-66
2022/06/28 02:45:42;;;;;;;0.40;0.40;;;14.70;99.90;14.80;101940.00;;;;5134160;28;20609;-66
2022/06/28 02:48:09;;;;;;;0.50;0.50;;;14.60;99.90;14.90;101939.00;;;;5134110;28;20186;-66
2022/06/28 02:50:35;;;;;;;0.50;0.50;;;14.50;99.90;15.20;101936.00;;;;5098416;28;20268;-66
2022/06/28 02:53:01;;;;;;;0.50;0.50;;;14.60;99.90;15.40;101947.00;;;;5098701;28;20207;-66
2022/06/28 02:55:29;;;;;;;0.50;0.50;;;14.70;99.90;15.20;101933.00;;;;5134356;28;20181;-66
2022/06/28 02:58:08;;;;;;;0.80;0.80;;;14.70;99.90;14.80;101945.00;;;;5134140;28;20174;-66
2022/06/28 03:00:37;;;;;;;0.40;0.40;;;14.50;99.90;14.90;101936.00;;;;5115649;28;20189;-66
2022/06/28 03:03:07;;;;;;;0.50;0.50;;;14.50;99.90;14.90;101951.00;;;;5115417;28;20190;-67
2022/06/28 03:05:42;;;;;;;0.50;0.50;;;14.40;99.90;15.10;101923.00;;;;5133713;28;20231;-65
2022/06/28 03:08:25;;;;;;;0.60;0.60;;;14.50;99.90;14.60;101947.00;;;;5116032;28;20625;-65
2022/06/28 03:10:59;;;;;;;0.50;0.50;;;14.40;99.90;14.70;101952.00;;;;5115692;28;20181;-65
2022/06/28 03:13:25;;;;;;;0.50;0.50;;;14.30;99.90;14.70;101946.00;;;;5134309;28;20173;-65
2022/06/28 03:15:55;;;;;;;0.50;0.50;;;14.30;99.90;15.10;101945.00;;;;5098908;28;20188;-65
2022/06/28 03:18:33;;;;;;;0.50;0.50;;;14.40;99.90;14.80;101924.00;;;;5135070;27;20181;-65
2022/06/28 03:20:58;;;;;;;0.50;0.50;;;14.40;99.90;14.90;101959.00;;;;5119553;27;20166;-65
2022/06/28 03:23:24;;;;;;;0.50;0.50;;;14.40;99.90;15.50;101962.00;;;;5119675;27;20616;-65
2022/06/28 03:25:50;;;;;;;0.53;0.53;;;14.60;99.90;15.20;101922.00;;;;5119364;27;20210;-65
2022/06/28 03:28:17;;;;;;;0.50;0.50;;;14.60;99.90;15.20;101947.00;;;;5137491;27;20173;-65
2022/06/28 03:30:44;;;;;;;0.60;0.60;;;14.60;99.90;15.40;101954.00;;;;5119068;27;20177;-65
2022/06/28 03:33:47;;;;;;;0.50;0.50;;;14.70;99.90;15.50;101957.00;;;;5137217;27;20210;-65
2022/06/28 03:36:13;;;;;;;0.50;0.50;;;14.70;99.90;15.50;101961.00;;;;5106155;27;20272;-65
2022/06/28 03:38:46;;;;;;;0.40;0.40;;;14.90;99.90;15.40;101961.00;;;;5118804;27;20736;-65
2022/06/28 03:41:27;;;;;;;0.60;0.60;;;15.00;99.90;15.30;101957.00;;;;5119344;27;20224;-65
2022/06/28 03:44:02;;;;;;;0.50;0.50;;;14.80;99.90;15.30;101958.00;;;;5119659;27;20182;-65
2022/06/28 03:46:30;;;;;;;0.40;0.40;;;14.70;99.90;14.60;101955.00;;;;5118908;27;20189;-65
2022/06/28 03:49:03;;;;;;;0.50;0.50;;;14.50;99.90;14.80;101957.00;;;;5136960;27;20188;-65
2022/06/28 03:51:32;;;;;;;0.50;0.50;;;14.40;99.90;14.70;101936.00;;;;5118984;27;20245;-65
2022/06/28 03:53:58;;;;;;;0.50;0.50;;;14.30;99.90;14.90;101970.00;;;;5136989;27;20672;-65
2022/06/28 03:56:44;;;;;;;0.50;0.50;;;14.30;99.90;14.90;101969.00;;;;5101929;27;20188;-65
2022/06/28 03:59:12;;;;;;;0.50;0.50;;;14.40;99.90;14.70;101967.00;;;;5118648;27;20178;-65
2022/06/28 04:02:04;;;;;;;0.50;0.50;;;14.30;99.90;15.00;101933.00;;;;5118504;27;20194;-65
2022/06/28 04:04:49;;;;;;;1.27;1.27;;;14.40;99.90;15.10;101970.00;;;;5118795;27;20187;-65
2022/06/28 04:07:33;;;;;;;0.40;0.40;;;14.50;99.90;15.00;101961.00;;;;5118500;27;20268;-65
2022/06/28 04:10:22;;;;;;;0.50;0.50;;;14.50;99.90;14.80;101966.00;;;;5101674;27;20173;-65
2022/06/28 04:13:05;;;;;;;0.50;0.50;;;14.40;99.90;14.60;101971.00;;;;5103545;27;20252;-65
2022/06/28 04:15:51;;;;;;;0.40;0.40;;;14.30;99.90;14.60;101982.00;;;;5118514;27;20211;-65
2022/06/28 04:18:35;;;;;;;0.40;0.40;;;14.30;99.90;14.70;101990.00;;;;5118171;27;20177;-65
2022/06/28 04:21:19;;;;;;;0.33;0.33;;;14.30;99.90;14.20;101953.00;;;;5118188;27;20257;-65
2022/06/28 04:24:06;;;;;;;0.40;0.40;;;14.10;99.90;14.50;101991.00;;;;5118396;27;20174;-65
2022/06/28 04:27:07;;;;;;;0.40;0.40;;;14.10;99.90;15.60;101954.00;;;;5118166;27;20687;-65
2022/06/28 04:29:52;;;;;;;0.30;0.30;;;14.70;99.90;15.40;101989.00;;;;5118265;27;20213;-65
2022/06/28 04:32:36;;;;;;;0.27;0.27;;;15.00;99.90;17.10;101982.00;;;;5135842;27;20298;-65
2022/06/28 04:35:22;;;;;;;0.20;0.20;;;15.90;99.90;16.80;101968.00;;;;5136592;27;20165;-65
2022/06/28 04:38:05;;;;;;;0.10;0.10;;;16.40;99.90;16.80;101962.00;;;;5118123;27;20178;-66
2022/06/28 04:40:49;;;;;;;0.10;0.10;;;16.60;99.90;17.80;101981.00;;;;5118153;27;20176;-66
2022/06/28 04:43:43;;;;;;;0.10;0.10;;;17.10;99.90;18.70;101963.00;;;;5101282;27;20171;-66
2022/06/28 04:46:29;;;;;;;0.10;0.10;;;17.80;99.90;17.50;101968.00;;;;5117714;27;20182;-66
2022/06/28 04:49:15;;;;;;;0.10;0.10;;;17.60;99.90;18.50;101985.00;;;;5101002;27;20187;-66
2022/06/28 04:52:01;;;;;;;0.10;0.10;;;17.80;99.90;19.20;101995.00;;;;5117748;27;20202;-66
2022/06/28 04:54:44;;;;;;;0.10;0.10;;;18.20;99.90;18.80;102008.00;;;;5118026;27;20326;-66
2022/06/28 04:57:30;;;;;;;0.10;0.10;;;18.40;99.90;19.20;102025.00;;;;5117611;27;20155;-66
2022/06/28 05:00:17;;;;;;;0.20;0.20;;;18.80;99.90;18.90;102007.00;;;;5135746;27;20179;-66
2022/06/28 05:03:01;;;;;;;0.10;0.10;;;18.60;99.90;19.30;102000.00;;;;5117585;27;20229;-66
2022/06/28 05:05:45;;;;;;;0.10;0.10;;;18.60;99.90;21.40;102024.00;;;;5136301;27;20194;-66
2022/06/28 05:08:28;;;;;;;0.10;0.10;;;19.70;99.90;21.60;102060.00;;;;5136074;27;20199;-65
2022/06/28 05:11:14;;;;;;;0.95;0.95;;;20.40;99.90;20.60;102059.00;;;;5100298;27;20538;-66
2022/06/28 05:14:03;;;;;;;0.10;0.10;;;20.30;99.90;21.20;102061.00;;;;5100468;27;20184;-63
2022/06/28 05:16:46;;;;;;;0.10;0.10;;;20.30;99.90;20.60;102043.00;;;;5101900;27;20176;-66
2022/06/28 05:19:31;;;;;;;0.10;0.10;;;20.00;99.90;22.70;102058.00;;;;5100200;27;20186;-64
2022/06/28 05:22:08;;;;;;;0.10;0.10;;;20.90;99.90;25.10;102118.00;;;;5117858;27;20247;-67
2022/06/28 05:25:12;;;;;;;0.10;0.10;;;22.80;99.90;23.60;102121.00;;;;5117545;27;20210;-66
2022/06/28 05:36:37;;;;;;;0.22;0.22;;;22.20;99.90;25.40;102148.00;;;;4954378;29;20241;-67
2022/06/28 05:43:20;;;;;;;0.10;0.10;;;21.10;99.90;22.60;102099.00;;;;4896022;29;20556;-64
2022/06/28 05:46:45;;;;;;;0.10;0.10;;;20.90;99.90;27.30;102151.00;;;;4881142;29;20187;-65
2022/06/28 05:50:21;;;;;;;0.10;0.10;;;24.20;99.90;27.30;102155.00;;;;4881203;29;20199;-65
2022/06/28 05:53:05;;;;;;;0.32;0.20;;;25.60;99.90;21.90;102131.00;;;;4959668;28;20270;-65
2022/06/28 05:55:49;;;;;;;0.90;0.90;;;22.60;99.90;22.40;102114.00;;;;4972858;28;20267;-64
2022/06/28 05:58:38;;;;;;;0.10;0.10;;;21.40;99.90;19.60;102051.00;;;;4956586;28;20185;-64
2022/06/28 06:01:25;;;;;;;0.10;0.10;;;20.10;99.90;19.40;102028.00;;;;4972305;28;20196;-64
2022/06/28 06:04:09;;;;;;;0.10;0.10;;;19.40;99.90;22.70;102074.00;;;;4972794;28;20184;-65
2022/06/28 06:06:37;;;;;;;2.70;0.50;;;20.90;99.90;23.20;102122.00;;;;4956778;28;20639;-65
2022/06/28 06:09:20;;;;;;;0.10;0.10;;;21.80;99.90;20.70;102063.00;;;;4956469;28;20195;-65
2022/06/28 06:11:48;;;;;;;0.68;0.60;;;20.90;99.90;21.90;102068.00;;;;4956318;28;20588;-65
2022/06/28 06:14:29;;;;;;;0.10;0.10;;;21.10;99.90;24.20;102103.00;;;;4956507;28;20564;-65
2022/06/28 06:17:13;;;;;;;0.65;0.65;;;22.20;99.90;25.10;102119.00;;;;4989704;28;20271;-66
2022/06/28 06:19:44;;;;;;;0.10;0.10;;;23.70;99.90;20.40;102108.00;;;;5055644;28;20268;-65
2022/06/28 06:22:27;;;;;;;0.38;0.38;;;21.50;99.90;22.20;102133.00;;;;5055478;28;20188;-64
2022/06/28 06:25:14;;;;;;;1.88;1.40;;;21.70;99.90;20.30;102096.00;;;;5073310;28;20595;-64
2022/06/28 06:28:00;;;;;;;0.50;0.50;;;20.30;99.90;20.10;102092.00;;;;5055408;28;20176;-64
2022/06/28 06:30:33;;;;;;;0.20;0.20;;;20.10;99.90;23.20;102139.00;;;;5055565;28;20192;-65
2022/06/28 06:33:37;;;;;;;0.10;0.10;;;21.40;99.90;24.50;102161.00;;;;5072706;28;20657;-66
2022/06/28 06:36:05;;;;;;;0.10;0.10;;;22.60;99.90;25.90;102162.00;;;;5055555;28;20173;-67
2022/06/28 06:38:49;;;;;;;0.10;0.10;;;24.00;99.90;24.50;102168.00;;;;5055433;28;20683;-65
2022/06/28 06:41:35;;;;;;;10.05;1.55;;;24.30;99.90;22.40;102173.00;;;;5055247;28;20178;-65
2022/06/28 06:44:28;;;;;;;0.10;0.10;;;22.20;99.90;21.00;102149.00;;;;5054954;28;20670;-65
2022/06/28 06:47:32;;;;;;;0.10;0.10;;;20.60;99.90;22.80;102161.00;;;;5038195;28;20189;-64
2022/06/28 06:50:13;;;;;;;0.20;0.20;;;21.50;99.90;23.10;102163.00;;;;5059399;28;20169;-64
2022/06/28 06:53:02;;;;;;;0.10;0.10;;;21.90;99.90;23.70;102165.00;;;;5073093;28;20201;-64
2022/06/28 06:55:28;;;;;;;0.10;0.10;;;22.30;99.90;22.40;102169.00;;;;5077133;28;20183;-64
2022/06/28 06:57:57;;;;;;;0.10;0.10;;;22.70;99.90;22.20;102158.00;;;;5076146;28;20174;-64
2022/06/28 07:00:26;;;;;;;0.10;0.10;;;21.50;99.90;22.40;102170.00;;;;5055572;28;20182;-64
2022/06/28 07:03:17;;;;;;;0.10;0.10;;;21.70;99.90;23.00;102175.00;;;;5058132;28;20189;-64
2022/06/28 07:05:43;;;;;;;0.10;0.10;;;21.90;99.90;26.40;102168.00;;;;5058782;28;20663;-64
2022/06/28 07:08:08;;;;;;;0.10;0.10;;;24.30;99.90;24.00;102163.00;;;;5042094;28;20193;-64
2022/06/28 07:10:34;;;;;;;0.10;0.10;;;24.00;99.90;25.90;102150.00;;;;5088311;28;20177;-64
2022/06/28 07:13:01;;;;;;;0.20;0.20;;;24.30;99.90;25.40;102153.00;;;;5077988;28;20220;-64
2022/06/28 07:15:29;;;;;;;0.22;0.22;;;25.00;99.90;24.50;102178.00;;;;5096452;28;20184;-64
2022/06/28 07:18:04;;;;;;;0.10;0.10;;;24.40;99.90;20.60;102167.00;;;;5095744;28;20260;-64
2022/06/28 07:20:29;;;;;;;0.10;0.10;;;21.50;99.90;24.50;102168.00;;;;5096387;28;20682;-64
2022/06/28 07:23:07;;;;;;;0.10;0.10;;;22.40;99.90;27.70;102165.00;;;;5078422;28;20303;-65
2022/06/28 07:25:33;;;;;;;0.20;0.20;;;25.20;99.90;30.20;102150.00;;;;5078544;28;20545;-66
2022/06/28 07:28:16;;;;;;;2.25;0.30;;;27.70;99.90;24.50;102142.00;;;;5096528;28;20176;-67
2022/06/28 07:30:47;;;;;;;9.80;0.73;;;25.30;99.90;26.20;102161.00;;;;5078461;28;20180;-67
2022/06/28 07:33:21;;;;;;;0.10;0.10;;;25.50;99.90;24.90;102159.00;;;;5061516;28;20201;-65
2022/06/28 07:36:13;;;;;;;0.30;0.30;;;24.70;99.90;25.20;102147.00;;;;5061873;28;20587;-66
2022/06/28 07:38:54;;;;;;;0.10;0.10;;;24.90;99.80;26.60;102141.00;;;;5078561;28;20212;-66
2022/06/28 07:41:23;;;;;;;0.10;0.10;;;25.50;98.30;30.20;102117.00;;;;5096390;28;20203;-64
2022/06/28 07:44:17;;;;;;;2.45;1.20;;;27.70;97.00;24.50;102121.00;;;;5096215;28;20188;-66
2022/06/28 07:46:43;;;;;;;0.10;0.10;;;25.40;94.70;25.40;102128.00;;;;5095803;28;20193;-64
2022/06/28 07:49:08;;;;;;;2.55;0.65;;;24.40;97.10;28.40;102104.00;;;;5078329;28;20181;-65
2022/06/28 07:54:37;;;;;;;1.85;0.65;;;25.50;95.90;21.60;102115.00;;;;5095982;28;20168;-64
2022/06/28 07:57:06;;;;;;;0.10;0.10;;;22.70;97.80;22.90;102144.00;;;;5094373;28;20475;-64
2022/06/28 07:59:48;;;;;;;0.10;0.10;;;22.50;99.90;23.70;102155.00;;;;5076768;28;20192;-65
2022/06/28 08:02:14;;;;;;;0.90;0.90;;;23.00;99.90;23.60;102156.00;;;;5078048;28;20275;-65
2022/06/28 08:04:40;;;;;;;0.10;0.10;;;22.90;99.90;24.60;102153.00;;;;5088202;28;20268;-65
2022/06/28 08:07:08;;;;;;;0.10;0.10;;;23.70;99.90;28.70;102131.00;;;;5057920;28;20169;-66
2022/06/28 08:09:34;;;;;;;0.10;0.10;;;26.20;99.90;28.40;102106.00;;;;5075290;28;20542;-66
2022/06/28 08:12:27;;;;;;;0.10;0.10;;;27.30;98.00;26.30;102121.00;;;;5075641;28;20213;-64
2022/06/28 08:14:53;;;;;;;0.10;0.10;;;25.90;99.20;23.60;102125.00;;;;5063370;28;20719;-68
2022/06/28 08:17:18;;;;;;;0.10;0.10;;;24.40;99.00;27.30;102121.00;;;;5058848;28;20177;-68
2022/06/28 08:19:45;;;;;;;0.10;0.10;;;25.20;99.90;26.60;102108.00;;;;5056966;28;20182;-66
2022/06/28 08:22:11;;;;;;;3.30;0.88;;;26.20;98.90;26.50;102113.00;;;;5057284;28;20636;-66
2022/06/28 08:24:39;;;;;;;0.03;0.03;;;25.90;99.20;28.60;102109.00;;;;5093346;28;20173;-66
2022/06/28 08:27:27;;;;;;;0.10;0.10;;;27.00;97.80;27.90;102097.00;;;;5077666;28;20169;-67
2022/06/28 08:29:55;;;;;;;0.10;0.10;;;27.40;96.70;24.80;102107.00;;;;5065977;28;20174;-67
2022/06/28 08:32:51;;;;;;;0.10;0.10;;;25.60;96.70;24.30;102072.00;;;;5041320;28;20217;-68
2022/06/28 08:35:17;;;;;;;0.00;0.00;;;25.10;96.60;26.40;102101.00;;;;5039797;28;20193;-68
2022/06/28 08:38:06;;;;;;;0.10;0.10;;;25.40;97.90;27.50;102114.00;;;;5074830;28;20185;-67
2022/06/28 08:41:10;;;;;;;0.10;0.10;;;26.00;98.20;27.40;102106.00;;;;5057030;28;20216;-67
2022/06/28 08:43:36;;;;;;;0.10;0.10;;;26.00;97.20;26.30;102111.00;;;;5056654;28;20185;-67
2022/06/28 08:46:28;;;;;;;0.10;0.10;;;25.70;96.80;28.30;102096.00;;;;5057101;28;20215;-69
2022/06/28 08:49:59;;;;;;;0.10;0.10;;;26.60;96.90;29.20;102087.00;;;;5059092;28;20181;-69
2022/06/28 08:52:39;;;;;;;0.10;0.10;;;27.40;95.50;26.60;102094.00;;;;5056667;28;20293;-68
2022/06/28 08:55:17;;;;;;;0.10;0.10;;;26.80;94.90;29.50;102069.00;;;;5057307;28;20158;-69
2022/06/28 08:57:45;;;;;;;0.10;0.10;;;27.60;94.70;29.10;102060.00;;;;5057243;28;20195;-69
2022/06/28 09:00:13;;;;;;;0.10;0.10;;;28.90;93.50;28.70;102075.00;;;;5056713;28;20297;-70
2022/06/28 09:03:01;;;;;;;0.10;0.10;;;27.90;94.30;29.00;102038.00;;;;5056579;28;20170;-70
2022/06/28 09:06:20;;;;;;;0.10;0.10;;;28.00;93.70;28.40;102047.00;;;;5074182;28;20239;-67
2022/06/28 09:09:39;;;;;;;0.10;0.10;;;28.50;92.30;26.90;102068.00;;;;5056667;28;20192;-69
2022/06/28 09:12:57;;;;;;;0.10;0.10;;;27.10;92.50;27.70;102070.00;;;;5055846;28;20684;-70
2022/06/28 09:15:59;;;;;;;0.10;0.10;;;26.30;94.20;25.40;102051.00;;;;5055744;28;20193;-71
2022/06/28 09:18:37;;;;;;;0.25;0.25;;;25.70;95.00;24.60;102076.00;;;;5033060;28;20181;-69
2022/06/28 09:21:14;;;;;;;0.10;0.10;;;25.00;95.20;24.50;102082.00;;;;5083888;28;20283;-69
2022/06/28 09:24:02;;;;;;;0.10;0.10;;;24.60;97.10;25.10;102077.00;;;;5059565;28;20550;-69
2022/06/28 09:26:37;;;;;;;0.28;0.28;;;24.70;97.70;24.90;102074.00;;;;5076148;28;20177;-69
2022/06/28 09:29:24;;;;;;;0.10;0.10;;;24.20;98.50;27.10;102068.00;;;;5057258;28;20184;-69
2022/06/28 09:32:02;;;;;;;0.30;0.30;;;25.90;97.80;25.60;102068.00;;;;5055779;28;20216;-69
2022/06/28 09:35:05;;;;;;;0.10;0.10;;;25.70;96.90;29.40;102041.00;;;;5039315;28;20177;-65
2022/06/28 09:40:31;;;;;;;0.10;0.10;;;26.50;95.10;24.80;102065.00;;;;5076501;28;20655;-71
2022/06/28 09:43:15;;;;;;;0.10;0.10;;;25.40;95.60;27.80;102023.00;;;;5076020;28;20188;-70
2022/06/28 09:46:04;;;;;;;0.10;0.10;;;26.40;95.50;28.90;102037.00;;;;5049273;28;20727;-69
2022/06/28 09:49:28;;;;;;;0.40;0.40;;;27.40;95.40;31.40;102020.00;;;;5055772;28;20580;-70
2022/06/28 09:52:12;;;;;;;3.50;1.63;;;29.20;94.10;27.70;102040.00;;;;5048206;28;20213;-69
2022/06/28 09:54:54;;;;;;;0.10;0.10;;;28.60;92.60;29.10;102028.00;;;;5061200;28;20531;-70
2022/06/28 09:57:39;;;;;;;0.10;0.10;;;28.80;93.60;28.10;102027.00;;;;5067351;28;20180;-69
2022/06/28 10:00:26;;;;;;;0.70;0.70;;;28.20;93.70;28.20;102029.00;;;;5072436;28;20276;-69
2022/06/28 10:02:57;;;;;;;0.10;0.10;;;28.00;94.30;26.60;102002.00;;;;5055574;28;20190;-70
2022/06/28 10:05:41;;;;;;;0.10;0.10;;;27.00;94.50;27.70;102037.00;;;;5055476;28;20178;-72
2022/06/28 10:08:07;;;;;;;0.10;0.10;;;26.80;95.10;28.10;102033.00;;;;5071896;28;20174;-69
2022/06/28 10:10:56;;;;;;;1.80;0.47;;;27.60;94.30;29.50;102016.00;;;;5055709;28;20232;-70
2022/06/28 10:16:54;;;;;;;0.10;0.10;;;28.00;93.70;26.90;102021.00;;;;5070288;28;20235;-71
2022/06/28 10:19:37;;;;;;;0.40;0.15;;;27.20;94.00;27.00;102028.00;;;;5053288;28;20174;-68
2022/06/28 10:33:56;;;;;;;0.10;0.10;;;26.90;95.00;29.30;102007.00;;;;5070279;28;20581;-69
2022/06/28 10:36:51;;;;;;;0.10;0.10;;;27.90;94.40;25.70;102019.00;;;;5049273;28;20182;-71
2022/06/28 10:39:31;;;;;;;0.10;0.10;;;26.30;95.00;27.50;102011.00;;;;5065763;28;20174;-70
2022/06/28 10:42:18;;;;;;;0.20;0.20;;;26.40;95.60;28.10;102013.00;;;;5040441;28;20201;-71
2022/06/28 10:45:01;;;;;;;0.10;0.10;;;26.90;95.20;28.20;101998.00;;;;5049770;28;20216;-71
2022/06/28 10:48:09;;;;;;;0.10;0.10;;;27.70;94.70;27.90;102001.00;;;;5062650;28;20646;-72
2022/06/28 10:51:03;;;;;;;0.17;0.17;;;27.60;94.70;27.80;102005.00;;;;5030725;28;20171;-71
2022/06/28 10:53:55;;;;;;;1.65;0.28;;;27.20;95.40;29.10;102000.00;;;;5037648;28;20278;-71
2022/06/28 10:56:47;;;;;;;0.10;0.10;;;27.90;94.90;30.40;101984.00;;;;5032875;28;20201;-71
2022/06/28 10:59:39;;;;;;;0.10;0.10;;;28.80;94.60;29.40;101984.00;;;;5041485;28;20186;-71
2022/06/28 11:02:08;;;;;;;1.85;0.93;;;29.30;93.80;28.60;101961.00;;;;5029148;28;20183;-72
2022/06/28 11:05:06;;;;;;;0.10;0.10;;;28.30;93.80;29.40;101969.00;;;;5028676;28;20225;-71
2022/06/28 11:07:55;;;;;;;0.50;0.50;;;28.60;93.50;30.00;101970.00;;;;5029064;28;20604;-71
2022/06/28 11:11:00;;;;;;;0.10;0.10;;;29.00;93.50;29.60;101972.00;;;;5045402;28;20554;-71
2022/06/28 11:13:48;;;;;;;0.10;0.10;;;28.40;93.80;32.30;101947.00;;;;5028910;28;20193;-70
2022/06/28 11:16:51;;;;;;;0.10;0.10;;;30.30;92.90;31.70;101939.00;;;;5028855;28;20558;-70
2022/06/28 11:19:51;;;;;;;0.10;0.10;;;30.90;91.40;28.70;101948.00;;;;5028719;28;20167;-69
2022/06/28 11:23:03;;;;;;;0.52;0.52;;;28.80;92.60;29.10;101955.00;;;;5028815;28;20268;-69
2022/06/28 11:29:44;;;;;;;0.10;0.10;;;28.10;94.10;28.60;101942.00;;;;5029788;28;20178;-69
2022/06/28 11:32:50;;;;;;;0.30;0.30;;;28.30;93.70;27.70;101950.00;;;;5044352;28;20277;-69
2022/06/28 11:35:49;;;;;;;6.82;0.30;;;27.50;94.20;26.70;101952.00;;;;5028524;28;20206;-68
2022/06/28 11:39:09;;;;;;;0.10;0.10;;;26.60;94.90;29.60;101938.00;;;;5028538;28;20274;-70
2022/06/28 11:42:04;;;;;;;0.10;0.10;;;27.70;95.30;27.60;101950.00;;;;5029415;28;20183;-69
2022/06/28 11:45:05;;;;;;;2.10;0.60;;;27.70;94.10;26.20;101940.00;;;;5016223;28;20179;-69
2022/06/28 11:48:10;;;;;;;0.10;0.10;;;27.20;93.70;28.00;101926.00;;;;5014698;28;20614;-70
2022/06/28 11:51:27;;;;;;;0.10;0.10;;;26.80;95.10;25.00;101958.00;;;;5018179;28;20286;-69
2022/06/28 11:54:16;;;;;;;0.10;0.10;;;25.70;95.40;25.50;101942.00;;;;5017483;28;20204;-69
2022/06/28 11:57:37;;;;;;;0.10;0.10;;;25.10;96.80;28.30;101936.00;;;;5050634;28;20309;-70
2022/06/28 12:00:33;;;;;;;0.10;0.10;;;26.60;96.60;26.20;101937.00;;;;5031401;28;20214;-71
2022/06/28 12:03:43;;;;;;;0.10;0.10;;;25.90;95.40;26.70;101941.00;;;;5035160;28;20229;-70
2022/06/28 12:06:33;;;;;;;0.10;0.10;;;25.80;96.10;26.00;101923.00;;;;5050707;28;20187;-70
2022/06/28 12:09:25;;;;;;;0.30;0.30;;;25.60;96.10;26.70;101940.00;;;;5050635;28;20266;-70
2022/06/28 12:12:31;;;;;;;0.10;0.10;;;25.80;96.40;27.70;101930.00;;;;5033779;28;20305;-71
2022/06/28 12:15:35;;;;;;;0.20;0.20;;;26.00;96.40;27.70;101920.00;;;;5050978;28;20179;-70
2022/06/28 12:18:21;;;;;;;0.10;0.10;;;26.50;95.50;27.70;101921.00;;;;5050916;28;20178;-70
2022/06/28 12:21:32;;;;;;;0.70;0.70;;;26.80;95.50;26.40;101935.00;;;;5035371;28;20232;-70
2022/06/28 12:24:46;;;;;;;0.20;0.20;;;25.60;96.00;24.40;101946.00;;;;5034294;28;20186;-70
2022/06/28 12:27:34;;;;;;;0.20;0.20;;;24.70;95.60;25.10;101947.00;;;;5045441;28;20214;-69
2022/06/28 12:30:20;;;;;;;0.45;0.45;;;24.60;97.10;25.60;101946.00;;;;5035068;28;20183;-69
2022/06/28 12:33:06;;;;;;;0.30;0.30;;;24.80;97.10;26.30;101946.00;;;;5050457;28;20305;-70